sensor_id;sensor_type;location;lat;lon;timestamp;P1;durP1;ratioP1;P2;durP2;ratioP2
37383;SDS011;23258;49.718;11.082;2023-02-13T00:00:17;6.77;;;5.70;;
37383;SDS011;23258;49.718;11.082;2023-02-13T00:02:47;7.50;;;5.40;;
37383;SDS011;23258;49.718;11.082;2023-02-13T00:05:19;8.77;;;6.87;;
37383;SDS011;23258;49.718;11.082;2023-02-13T00:07:49;8.90;;;7.40;;
37383;SDS011;23258;49.718;11.082;2023-02-13T00:10:19;10.20;;;7.20;;
37383;SDS011;23258;49.718;11.082;2023-02-13T00:12:49;11.87;;;7.23;;
37383;SDS011;23258;49.718;11.082;2023-02-13T00:15:18;10.07;;;6.10;;
37383;SDS011;23258;49.718;11.082;2023-02-13T00:17:48;8.77;;;6.83;;
37383;SDS011;23258;49.718;11.082;2023-02-13T00:20:20;9.57;;;7.20;;
37383;SDS011;23258;49.718;11.082;2023-02-13T00:22:50;7.47;;;6.73;;
37383;SDS011;23258;49.718;11.082;2023-02-13T00:25:19;8.53;;;7.47;;
37383;SDS011;23258;49.718;11.082;2023-02-13T00:27:49;11.50;;;8.77;;
37383;SDS011;23258;49.718;11.082;2023-02-13T00:30:20;12.03;;;9.50;;
37383;SDS011;23258;49.718;11.082;2023-02-13T00:32:50;14.17;;;10.03;;
37383;SDS011;23258;49.718;11.082;2023-02-13T00:35:25;18.13;;;11.73;;
37383;SDS011;23258;49.718;11.082;2023-02-13T00:37:54;13.83;;;10.10;;
37383;SDS011;23258;49.718;11.082;2023-02-13T00:40:24;15.43;;;10.30;;
37383;SDS011;23258;49.718;11.082;2023-02-13T00:42:53;15.10;;;10.50;;
37383;SDS011;23258;49.718;11.082;2023-02-13T00:45:24;13.60;;;9.33;;
37383;SDS011;23258;49.718;11.082;2023-02-13T00:47:54;11.57;;;9.30;;
37383;SDS011;23258;49.718;11.082;2023-02-13T00:50:26;15.67;;;9.77;;
37383;SDS011;23258;49.718;11.082;2023-02-13T00:52:55;10.73;;;8.90;;
37383;SDS011;23258;49.718;11.082;2023-02-13T00:55:25;12.63;;;8.00;;
37383;SDS011;23258;49.718;11.082;2023-02-13T00:57:55;12.17;;;8.70;;
37383;SDS011;23258;49.718;11.082;2023-02-13T01:00:24;11.47;;;7.77;;
37383;SDS011;23258;49.718;11.082;2023-02-13T01:02:54;13.83;;;8.43;;
37383;SDS011;23258;49.718;11.082;2023-02-13T01:05:26;12.00;;;8.77;;
37383;SDS011;23258;49.718;11.082;2023-02-13T01:07:56;8.27;;;7.47;;
37383;SDS011;23258;49.718;11.082;2023-02-13T01:10:25;11.43;;;8.17;;
37383;SDS011;23258;49.718;11.082;2023-02-13T01:12:55;11.47;;;6.93;;
37383;SDS011;23258;49.718;11.082;2023-02-13T01:15:25;9.23;;;6.63;;
37383;SDS011;23258;49.718;11.082;2023-02-13T01:17:54;8.57;;;7.27;;
37383;SDS011;23258;49.718;11.082;2023-02-13T01:20:27;12.57;;;8.37;;
37383;SDS011;23258;49.718;11.082;2023-02-13T01:22:58;13.90;;;8.80;;
37383;SDS011;23258;49.718;11.082;2023-02-13T01:25:28;10.00;;;8.00;;
37383;SDS011;23258;49.718;11.082;2023-02-13T01:27:57;12.57;;;8.43;;
37383;SDS011;23258;49.718;11.082;2023-02-13T01:30:27;9.30;;;6.93;;
37383;SDS011;23258;49.718;11.082;2023-02-13T01:32:56;10.60;;;7.63;;
37383;SDS011;23258;49.718;11.082;2023-02-13T01:35:28;9.03;;;6.97;;
37383;SDS011;23258;49.718;11.082;2023-02-13T01:37:58;9.07;;;6.33;;
37383;SDS011;23258;49.718;11.082;2023-02-13T01:40:28;9.40;;;7.40;;
37383;SDS011;23258;49.718;11.082;2023-02-13T01:42:59;7.80;;;6.20;;
37383;SDS011;23258;49.718;11.082;2023-02-13T01:45:29;10.77;;;6.10;;
37383;SDS011;23258;49.718;11.082;2023-02-13T01:47:59;5.90;;;5.33;;
37383;SDS011;23258;49.718;11.082;2023-02-13T01:50:35;6.23;;;5.63;;
37383;SDS011;23258;49.718;11.082;2023-02-13T01:53:06;9.63;;;6.63;;
37383;SDS011;23258;49.718;11.082;2023-02-13T01:55:38;7.50;;;5.67;;
37383;SDS011;23258;49.718;11.082;2023-02-13T01:58:11;8.17;;;6.43;;
37383;SDS011;23258;49.718;11.082;2023-02-13T02:00:42;9.33;;;6.33;;
37383;SDS011;23258;49.718;11.082;2023-02-13T02:03:16;7.87;;;5.97;;
37383;SDS011;23258;49.718;11.082;2023-02-13T02:05:50;7.20;;;6.27;;
37383;SDS011;23258;49.718;11.082;2023-02-13T02:08:21;9.43;;;7.10;;
37383;SDS011;23258;49.718;11.082;2023-02-13T02:10:52;10.33;;;6.53;;
37383;SDS011;23258;49.718;11.082;2023-02-13T02:13:23;7.80;;;6.40;;
37383;SDS011;23258;49.718;11.082;2023-02-13T02:15:59;8.03;;;6.73;;
37383;SDS011;23258;49.718;11.082;2023-02-13T02:18:29;11.17;;;7.47;;
37383;SDS011;23258;49.718;11.082;2023-02-13T02:23:57;10.23;;;5.80;;
37383;SDS011;23258;49.718;11.082;2023-02-13T02:29:24;6.17;;;5.30;;
37383;SDS011;23258;49.718;11.082;2023-02-13T02:34:55;6.97;;;5.27;;
37383;SDS011;23258;49.718;11.082;2023-02-13T02:37:34;6.57;;;5.70;;
37383;SDS011;23258;49.718;11.082;2023-02-13T02:40:09;5.57;;;5.07;;
37383;SDS011;23258;49.718;11.082;2023-02-13T02:42:41;6.47;;;5.73;;
37383;SDS011;23258;49.718;11.082;2023-02-13T02:45:18;6.53;;;5.50;;
37383;SDS011;23258;49.718;11.082;2023-02-13T02:47:54;7.80;;;5.10;;
37383;SDS011;23258;49.718;11.082;2023-02-13T02:50:40;5.63;;;4.40;;
37383;SDS011;23258;49.718;11.082;2023-02-13T02:53:16;5.50;;;4.57;;
37383;SDS011;23258;49.718;11.082;2023-02-13T02:55:47;6.23;;;4.67;;
37383;SDS011;23258;49.718;11.082;2023-02-13T02:58:19;8.57;;;6.50;;
37383;SDS011;23258;49.718;11.082;2023-02-13T03:01:02;8.53;;;6.07;;
37383;SDS011;23258;49.718;11.082;2023-02-13T03:03:47;8.27;;;5.47;;
37383;SDS011;23258;49.718;11.082;2023-02-13T03:06:35;6.53;;;5.83;;
37383;SDS011;23258;49.718;11.082;2023-02-13T03:09:08;7.67;;;5.23;;
37383;SDS011;23258;49.718;11.082;2023-02-13T03:11:52;5.17;;;4.57;;
37383;SDS011;23258;49.718;11.082;2023-02-13T03:14:35;7.10;;;4.97;;
37383;SDS011;23258;49.718;11.082;2023-02-13T03:17:05;4.37;;;3.97;;
37383;SDS011;23258;49.718;11.082;2023-02-13T03:19:54;4.37;;;3.97;;
37383;SDS011;23258;49.718;11.082;2023-02-13T03:22:41;5.03;;;3.60;;
37383;SDS011;23258;49.718;11.082;2023-02-13T03:25:16;3.67;;;3.33;;
37383;SDS011;23258;49.718;11.082;2023-02-13T03:28:02;4.70;;;4.07;;
37383;SDS011;23258;49.718;11.082;2023-02-13T03:30:51;6.50;;;4.80;;
37383;SDS011;23258;49.718;11.082;2023-02-13T03:33:30;8.77;;;6.03;;
37383;SDS011;23258;49.718;11.082;2023-02-13T03:36:06;6.67;;;5.17;;
37383;SDS011;23258;49.718;11.082;2023-02-13T03:39:00;6.30;;;4.80;;
37383;SDS011;23258;49.718;11.082;2023-02-13T03:41:35;13.37;;;6.47;;
37383;SDS011;23258;49.718;11.082;2023-02-13T03:44:09;10.93;;;6.10;;
37383;SDS011;23258;49.718;11.082;2023-02-13T03:46:40;3.77;;;3.40;;
37383;SDS011;23258;49.718;11.082;2023-02-13T03:49:12;5.53;;;5.03;;
37383;SDS011;23258;49.718;11.082;2023-02-13T03:51:58;6.30;;;5.00;;
37383;SDS011;23258;49.718;11.082;2023-02-13T03:54:32;10.30;;;6.13;;
37383;SDS011;23258;49.718;11.082;2023-02-13T03:57:16;8.00;;;5.83;;
37383;SDS011;23258;49.718;11.082;2023-02-13T04:00:00;8.70;;;5.77;;
37383;SDS011;23258;49.718;11.082;2023-02-13T04:02:41;10.57;;;5.97;;
37383;SDS011;23258;49.718;11.082;2023-02-13T04:05:13;7.50;;;5.87;;
37383;SDS011;23258;49.718;11.082;2023-02-13T04:07:43;7.93;;;5.63;;
37383;SDS011;23258;49.718;11.082;2023-02-13T04:10:16;9.30;;;5.83;;
37383;SDS011;23258;49.718;11.082;2023-02-13T04:12:49;7.63;;;5.83;;
37383;SDS011;23258;49.718;11.082;2023-02-13T04:15:20;7.47;;;5.80;;
37383;SDS011;23258;49.718;11.082;2023-02-13T04:17:54;8.03;;;5.27;;
37383;SDS011;23258;49.718;11.082;2023-02-13T04:20:25;6.00;;;4.90;;
37383;SDS011;23258;49.718;11.082;2023-02-13T04:22:55;5.60;;;4.60;;
37383;SDS011;23258;49.718;11.082;2023-02-13T04:25:27;5.40;;;4.90;;
37383;SDS011;23258;49.718;11.082;2023-02-13T04:27:57;5.90;;;4.33;;
37383;SDS011;23258;49.718;11.082;2023-02-13T04:30:27;5.30;;;4.47;;
37383;SDS011;23258;49.718;11.082;2023-02-13T04:32:56;4.33;;;3.87;;
37383;SDS011;23258;49.718;11.082;2023-02-13T04:35:26;5.17;;;4.00;;
37383;SDS011;23258;49.718;11.082;2023-02-13T04:37:55;4.60;;;3.93;;
37383;SDS011;23258;49.718;11.082;2023-02-13T04:40:27;3.87;;;3.53;;
37383;SDS011;23258;49.718;11.082;2023-02-13T04:42:57;4.47;;;3.20;;
37383;SDS011;23258;49.718;11.082;2023-02-13T04:45:27;5.53;;;3.70;;
37383;SDS011;23258;49.718;11.082;2023-02-13T04:47:56;2.70;;;2.50;;
37383;SDS011;23258;49.718;11.082;2023-02-13T04:50:26;3.50;;;3.20;;
37383;SDS011;23258;49.718;11.082;2023-02-13T04:52:56;4.00;;;3.33;;
37383;SDS011;23258;49.718;11.082;2023-02-13T04:55:28;3.63;;;3.30;;
37383;SDS011;23258;49.718;11.082;2023-02-13T04:57:58;2.97;;;2.60;;
37383;SDS011;23258;49.718;11.082;2023-02-13T05:00:27;3.00;;;2.73;;
37383;SDS011;23258;49.718;11.082;2023-02-13T05:02:59;2.83;;;2.63;;
37383;SDS011;23258;49.718;11.082;2023-02-13T05:05:32;4.73;;;2.80;;
37383;SDS011;23258;49.718;11.082;2023-02-13T05:08:02;2.90;;;2.70;;
37383;SDS011;23258;49.718;11.082;2023-02-13T05:10:35;3.93;;;2.70;;
37383;SDS011;23258;49.718;11.082;2023-02-13T05:13:04;3.00;;;2.80;;
37383;SDS011;23258;49.718;11.082;2023-02-13T05:15:34;4.97;;;3.80;;
37383;SDS011;23258;49.718;11.082;2023-02-13T05:18:04;4.70;;;3.63;;
37383;SDS011;23258;49.718;11.082;2023-02-13T05:20:33;5.97;;;5.00;;
37383;SDS011;23258;49.718;11.082;2023-02-13T05:23:03;7.07;;;3.87;;
37383;SDS011;23258;49.718;11.082;2023-02-13T05:25:48;6.20;;;4.30;;
37383;SDS011;23258;49.718;11.082;2023-02-13T05:28:18;8.90;;;5.67;;
37383;SDS011;23258;49.718;11.082;2023-02-13T05:31:00;8.73;;;5.60;;
37383;SDS011;23258;49.718;11.082;2023-02-13T05:33:30;10.67;;;5.40;;
37383;SDS011;23258;49.718;11.082;2023-02-13T05:35:59;8.03;;;5.17;;
37383;SDS011;23258;49.718;11.082;2023-02-13T05:38:29;7.07;;;5.87;;
37383;SDS011;23258;49.718;11.082;2023-02-13T05:41:01;7.77;;;5.50;;
37383;SDS011;23258;49.718;11.082;2023-02-13T05:43:31;7.00;;;5.47;;
37383;SDS011;23258;49.718;11.082;2023-02-13T05:46:01;5.73;;;4.97;;
37383;SDS011;23258;49.718;11.082;2023-02-13T05:48:31;6.60;;;4.87;;
37383;SDS011;23258;49.718;11.082;2023-02-13T05:51:00;7.20;;;5.10;;
37383;SDS011;23258;49.718;11.082;2023-02-13T05:53:30;7.43;;;5.37;;
37383;SDS011;23258;49.718;11.082;2023-02-13T05:56:04;5.77;;;5.17;;
37383;SDS011;23258;49.718;11.082;2023-02-13T05:58:33;7.10;;;5.17;;
37383;SDS011;23258;49.718;11.082;2023-02-13T06:01:03;7.07;;;4.70;;
37383;SDS011;23258;49.718;11.082;2023-02-13T06:03:33;9.67;;;6.40;;
37383;SDS011;23258;49.718;11.082;2023-02-13T06:06:02;8.43;;;6.97;;
37383;SDS011;23258;49.718;11.082;2023-02-13T06:08:32;9.93;;;6.07;;
37383;SDS011;23258;49.718;11.082;2023-02-13T06:11:04;8.67;;;6.37;;
37383;SDS011;23258;49.718;11.082;2023-02-13T06:13:36;6.07;;;5.47;;
37383;SDS011;23258;49.718;11.082;2023-02-13T06:16:06;5.87;;;5.37;;
37383;SDS011;23258;49.718;11.082;2023-02-13T06:18:36;6.13;;;5.60;;
37383;SDS011;23258;49.718;11.082;2023-02-13T06:21:06;7.07;;;5.80;;
37383;SDS011;23258;49.718;11.082;2023-02-13T06:23:38;9.33;;;5.60;;
37383;SDS011;23258;49.718;11.082;2023-02-13T06:26:11;6.57;;;5.53;;
37383;SDS011;23258;49.718;11.082;2023-02-13T06:28:41;6.53;;;5.53;;
37383;SDS011;23258;49.718;11.082;2023-02-13T06:31:10;7.60;;;5.27;;
37383;SDS011;23258;49.718;11.082;2023-02-13T06:33:40;7.27;;;5.40;;
37383;SDS011;23258;49.718;11.082;2023-02-13T06:36:09;5.53;;;4.93;;
37383;SDS011;23258;49.718;11.082;2023-02-13T06:38:39;7.97;;;5.63;;
37383;SDS011;23258;49.718;11.082;2023-02-13T06:41:11;6.43;;;4.87;;
37383;SDS011;23258;49.718;11.082;2023-02-13T06:43:40;7.63;;;5.80;;
37383;SDS011;23258;49.718;11.082;2023-02-13T06:46:10;7.60;;;5.37;;
37383;SDS011;23258;49.718;11.082;2023-02-13T06:48:39;6.60;;;4.93;;
37383;SDS011;23258;49.718;11.082;2023-02-13T06:51:09;7.27;;;4.97;;
37383;SDS011;23258;49.718;11.082;2023-02-13T06:53:38;5.80;;;4.97;;
37383;SDS011;23258;49.718;11.082;2023-02-13T06:56:10;8.70;;;5.97;;
37383;SDS011;23258;49.718;11.082;2023-02-13T06:58:40;7.50;;;5.23;;
37383;SDS011;23258;49.718;11.082;2023-02-13T07:01:11;5.87;;;5.27;;
37383;SDS011;23258;49.718;11.082;2023-02-13T07:03:40;6.63;;;4.67;;
37383;SDS011;23258;49.718;11.082;2023-02-13T07:06:15;8.00;;;5.80;;
37383;SDS011;23258;49.718;11.082;2023-02-13T07:08:45;8.63;;;6.53;;
37383;SDS011;23258;49.718;11.082;2023-02-13T07:11:20;6.70;;;5.23;;
37383;SDS011;23258;49.718;11.082;2023-02-13T07:13:50;7.87;;;5.60;;
37383;SDS011;23258;49.718;11.082;2023-02-13T07:16:19;8.77;;;6.23;;
37383;SDS011;23258;49.718;11.082;2023-02-13T07:18:49;8.97;;;5.77;;
37383;SDS011;23258;49.718;11.082;2023-02-13T07:21:18;14.57;;;6.33;;
37383;SDS011;23258;49.718;11.082;2023-02-13T07:23:48;8.93;;;5.83;;
37383;SDS011;23258;49.718;11.082;2023-02-13T07:26:20;7.37;;;6.17;;
37383;SDS011;23258;49.718;11.082;2023-02-13T07:28:49;7.83;;;5.80;;
37383;SDS011;23258;49.718;11.082;2023-02-13T07:31:36;7.00;;;6.07;;
37383;SDS011;23258;49.718;11.082;2023-02-13T07:34:05;9.10;;;5.90;;
37383;SDS011;23258;49.718;11.082;2023-02-13T07:36:35;8.03;;;5.87;;
37383;SDS011;23258;49.718;11.082;2023-02-13T07:39:04;9.00;;;5.73;;
37383;SDS011;23258;49.718;11.082;2023-02-13T07:41:36;9.23;;;6.27;;
37383;SDS011;23258;49.718;11.082;2023-02-13T07:44:06;9.07;;;6.27;;
37383;SDS011;23258;49.718;11.082;2023-02-13T07:46:36;7.60;;;6.07;;
37383;SDS011;23258;49.718;11.082;2023-02-13T07:49:05;7.03;;;6.17;;
37383;SDS011;23258;49.718;11.082;2023-02-13T07:51:35;11.47;;;6.33;;
37383;SDS011;23258;49.718;11.082;2023-02-13T07:54:05;9.40;;;6.33;;
37383;SDS011;23258;49.718;11.082;2023-02-13T07:56:37;11.33;;;6.60;;
37383;SDS011;23258;49.718;11.082;2023-02-13T07:59:06;8.20;;;6.47;;
37383;SDS011;23258;49.718;11.082;2023-02-13T08:01:36;8.37;;;6.93;;
37383;SDS011;23258;49.718;11.082;2023-02-13T08:04:06;10.63;;;7.00;;
37383;SDS011;23258;49.718;11.082;2023-02-13T08:06:37;12.57;;;8.00;;
37383;SDS011;23258;49.718;11.082;2023-02-13T08:09:07;9.57;;;7.20;;
37383;SDS011;23258;49.718;11.082;2023-02-13T08:11:57;10.20;;;6.67;;
37383;SDS011;23258;49.718;11.082;2023-02-13T08:14:26;7.60;;;6.70;;
37383;SDS011;23258;49.718;11.082;2023-02-13T08:16:57;10.20;;;7.30;;
37383;SDS011;23258;49.718;11.082;2023-02-13T08:19:26;7.17;;;6.43;;
37383;SDS011;23258;49.718;11.082;2023-02-13T08:21:56;9.97;;;6.60;;
37383;SDS011;23258;49.718;11.082;2023-02-13T08:24:27;12.70;;;6.97;;
37383;SDS011;23258;49.718;11.082;2023-02-13T08:26:59;9.87;;;7.40;;
37383;SDS011;23258;49.718;11.082;2023-02-13T08:29:28;10.60;;;7.70;;
37383;SDS011;23258;49.718;11.082;2023-02-13T08:32:00;11.37;;;7.20;;
37383;SDS011;23258;49.718;11.082;2023-02-13T08:34:29;10.73;;;7.40;;
37383;SDS011;23258;49.718;11.082;2023-02-13T08:37:00;9.43;;;6.73;;
37383;SDS011;23258;49.718;11.082;2023-02-13T08:39:29;13.03;;;7.67;;
37383;SDS011;23258;49.718;11.082;2023-02-13T08:42:01;12.77;;;7.80;;
37383;SDS011;23258;49.718;11.082;2023-02-13T08:44:31;9.20;;;7.03;;
37383;SDS011;23258;49.718;11.082;2023-02-13T08:47:00;9.30;;;6.83;;
37383;SDS011;23258;49.718;11.082;2023-02-13T08:49:30;9.27;;;7.00;;
37383;SDS011;23258;49.718;11.082;2023-02-13T08:52:00;9.10;;;7.63;;
37383;SDS011;23258;49.718;11.082;2023-02-13T08:54:32;12.87;;;7.37;;
37383;SDS011;23258;49.718;11.082;2023-02-13T08:57:05;10.27;;;6.70;;
37383;SDS011;23258;49.718;11.082;2023-02-13T08:59:34;9.40;;;6.17;;
37383;SDS011;23258;49.718;11.082;2023-02-13T09:02:04;10.37;;;7.30;;
37383;SDS011;23258;49.718;11.082;2023-02-13T09:04:33;8.03;;;6.20;;
37383;SDS011;23258;49.718;11.082;2023-02-13T09:07:03;9.37;;;6.70;;
37383;SDS011;23258;49.718;11.082;2023-02-13T09:09:32;9.47;;;6.90;;
37383;SDS011;23258;49.718;11.082;2023-02-13T09:12:05;8.30;;;6.50;;
37383;SDS011;23258;49.718;11.082;2023-02-13T09:14:34;8.90;;;6.57;;
37383;SDS011;23258;49.718;11.082;2023-02-13T09:17:04;11.03;;;7.63;;
37383;SDS011;23258;49.718;11.082;2023-02-13T09:19:34;9.53;;;7.50;;
37383;SDS011;23258;49.718;11.082;2023-02-13T09:22:03;8.27;;;7.00;;
37383;SDS011;23258;49.718;11.082;2023-02-13T09:24:33;9.53;;;6.50;;
37383;SDS011;23258;49.718;11.082;2023-02-13T09:27:05;9.13;;;6.53;;
37383;SDS011;23258;49.718;11.082;2023-02-13T09:29:35;8.93;;;6.50;;
37383;SDS011;23258;49.718;11.082;2023-02-13T09:32:04;11.27;;;6.47;;
37383;SDS011;23258;49.718;11.082;2023-02-13T09:34:34;9.60;;;6.07;;
37383;SDS011;23258;49.718;11.082;2023-02-13T09:37:04;8.13;;;5.70;;
37383;SDS011;23258;49.718;11.082;2023-02-13T09:39:33;8.40;;;6.33;;
37383;SDS011;23258;49.718;11.082;2023-02-13T09:42:10;7.77;;;5.97;;
37383;SDS011;23258;49.718;11.082;2023-02-13T09:44:43;7.20;;;5.47;;
37383;SDS011;23258;49.718;11.082;2023-02-13T09:47:15;7.77;;;6.33;;
37383;SDS011;23258;49.718;11.082;2023-02-13T09:49:47;6.77;;;6.13;;
37383;SDS011;23258;49.718;11.082;2023-02-13T09:52:18;8.53;;;6.37;;
37383;SDS011;23258;49.718;11.082;2023-02-13T09:54:48;7.83;;;6.00;;
37383;SDS011;23258;49.718;11.082;2023-02-13T09:57:24;10.43;;;6.63;;
37383;SDS011;23258;49.718;11.082;2023-02-13T09:59:56;8.15;;;6.70;;
37383;SDS011;23258;49.718;11.082;2023-02-13T10:02:39;9.93;;;5.83;;
37383;SDS011;23258;49.718;11.082;2023-02-13T10:05:15;9.30;;;7.27;;
37383;SDS011;23258;49.718;11.082;2023-02-13T10:07:48;9.17;;;6.77;;
37383;SDS011;23258;49.718;11.082;2023-02-13T10:10:23;7.80;;;6.37;;
37383;SDS011;23258;49.718;11.082;2023-02-13T10:13:02;8.37;;;6.20;;
37383;SDS011;23258;49.718;11.082;2023-02-13T10:15:37;6.83;;;5.90;;
37383;SDS011;23258;49.718;11.082;2023-02-13T10:18:09;10.00;;;7.80;;
37383;SDS011;23258;49.718;11.082;2023-02-13T10:20:41;11.27;;;6.63;;
37383;SDS011;23258;49.718;11.082;2023-02-13T10:23:15;11.53;;;7.80;;
37383;SDS011;23258;49.718;11.082;2023-02-13T10:25:47;8.30;;;6.67;;
37383;SDS011;23258;49.718;11.082;2023-02-13T10:28:23;8.40;;;6.60;;
37383;SDS011;23258;49.718;11.082;2023-02-13T10:30:53;9.00;;;6.60;;
37383;SDS011;23258;49.718;11.082;2023-02-13T10:33:25;7.40;;;5.53;;
37383;SDS011;23258;49.718;11.082;2023-02-13T10:35:58;7.73;;;6.40;;
37383;SDS011;23258;49.718;11.082;2023-02-13T10:38:30;8.67;;;7.40;;
37383;SDS011;23258;49.718;11.082;2023-02-13T10:41:05;9.63;;;7.27;;
37383;SDS011;23258;49.718;11.082;2023-02-13T10:43:43;9.13;;;6.53;;
37383;SDS011;23258;49.718;11.082;2023-02-13T10:46:18;7.87;;;6.80;;
37383;SDS011;23258;49.718;11.082;2023-02-13T10:48:57;11.23;;;8.07;;
37383;SDS011;23258;49.718;11.082;2023-02-13T10:51:29;8.98;;;6.47;;
37383;SDS011;23258;49.718;11.082;2023-02-13T10:54:12;9.43;;;7.18;;
37383;SDS011;23258;49.718;11.082;2023-02-13T10:56:44;8.68;;;7.00;;
37383;SDS011;23258;49.718;11.082;2023-02-13T10:59:23;7.17;;;6.27;;
37383;SDS011;23258;49.718;11.082;2023-02-13T11:01:58;10.13;;;7.70;;
37383;SDS011;23258;49.718;11.082;2023-02-13T11:04:30;8.45;;;7.15;;
37383;SDS011;23258;49.718;11.082;2023-02-13T11:07:01;13.55;;;9.07;;
37383;SDS011;23258;49.718;11.082;2023-02-13T11:09:32;10.40;;;7.82;;
37383;SDS011;23258;49.718;11.082;2023-02-13T11:14:55;7.65;;;6.85;;
37383;SDS011;23258;49.718;11.082;2023-02-13T11:17:25;8.90;;;7.25;;
37383;SDS011;23258;49.718;11.082;2023-02-13T11:19:56;10.45;;;7.53;;
37383;SDS011;23258;49.718;11.082;2023-02-13T11:22:27;7.15;;;6.28;;
37383;SDS011;23258;49.718;11.082;2023-02-13T11:24:58;9.18;;;7.05;;
37383;SDS011;23258;49.718;11.082;2023-02-13T11:27:31;10.23;;;8.25;;
37383;SDS011;23258;49.718;11.082;2023-02-13T11:30:04;9.68;;;7.78;;
37383;SDS011;23258;49.718;11.082;2023-02-13T11:32:34;8.18;;;6.60;;
37383;SDS011;23258;49.718;11.082;2023-02-13T11:35:24;12.93;;;7.13;;
37383;SDS011;23258;49.718;11.082;2023-02-13T11:38:10;8.23;;;6.78;;
37383;SDS011;23258;49.718;11.082;2023-02-13T11:40:40;7.80;;;6.13;;
37383;SDS011;23258;49.718;11.082;2023-02-13T11:43:13;6.30;;;5.63;;
37383;SDS011;23258;49.718;11.082;2023-02-13T11:45:48;8.40;;;6.53;;
37383;SDS011;23258;49.718;11.082;2023-02-13T11:48:28;8.45;;;5.65;;
37383;SDS011;23258;49.718;11.082;2023-02-13T11:50:57;6.13;;;5.13;;
37383;SDS011;23258;49.718;11.082;2023-02-13T11:53:28;6.18;;;5.18;;
37383;SDS011;23258;49.718;11.082;2023-02-13T11:56:00;7.10;;;5.75;;
37383;SDS011;23258;49.718;11.082;2023-02-13T11:58:30;5.78;;;5.13;;
37383;SDS011;23258;49.718;11.082;2023-02-13T12:03:49;6.70;;;4.90;;
37383;SDS011;23258;49.718;11.082;2023-02-13T12:06:25;6.22;;;5.65;;
37383;SDS011;23258;49.718;11.082;2023-02-13T12:08:54;8.07;;;5.68;;
37383;SDS011;23258;49.718;11.082;2023-02-13T12:11:26;6.20;;;5.60;;
37383;SDS011;23258;49.718;11.082;2023-02-13T12:13:57;6.32;;;5.72;;
37383;SDS011;23258;49.718;11.082;2023-02-13T12:16:29;9.98;;;6.65;;
37383;SDS011;23258;49.718;11.082;2023-02-13T12:19:02;7.07;;;6.25;;
37383;SDS011;23258;49.718;11.082;2023-02-13T12:21:41;12.98;;;7.95;;
37383;SDS011;23258;49.718;11.082;2023-02-13T12:24:14;12.45;;;8.02;;
37383;SDS011;23258;49.718;11.082;2023-02-13T12:26:47;10.85;;;8.10;;
37383;SDS011;23258;49.718;11.082;2023-02-13T12:29:21;10.68;;;7.70;;
37383;SDS011;23258;49.718;11.082;2023-02-13T12:32:01;9.95;;;8.77;;
37383;SDS011;23258;49.718;11.082;2023-02-13T12:37:29;14.57;;;8.07;;
37383;SDS011;23258;49.718;11.082;2023-02-13T12:40:05;10.40;;;8.05;;
37383;SDS011;23258;49.718;11.082;2023-02-13T12:42:43;10.32;;;8.38;;
37383;SDS011;23258;49.718;11.082;2023-02-13T12:45:24;12.02;;;7.60;;
37383;SDS011;23258;49.718;11.082;2023-02-13T12:48:09;10.52;;;7.60;;
37383;SDS011;23258;49.718;11.082;2023-02-13T12:50:53;12.15;;;7.88;;
37383;SDS011;23258;49.718;11.082;2023-02-13T12:53:30;15.90;;;9.60;;
37383;SDS011;23258;49.718;11.082;2023-02-13T12:56:17;14.15;;;8.68;;
37383;SDS011;23258;49.718;11.082;2023-02-13T12:58:55;12.05;;;7.25;;
37383;SDS011;23258;49.718;11.082;2023-02-13T13:01:32;12.15;;;7.03;;
37383;SDS011;23258;49.718;11.082;2023-02-13T13:04:07;10.85;;;8.02;;
37383;SDS011;23258;49.718;11.082;2023-02-13T13:06:45;8.45;;;6.55;;
37383;SDS011;23258;49.718;11.082;2023-02-13T13:09:28;9.07;;;7.43;;
37383;SDS011;23258;49.718;11.082;2023-02-13T13:12:02;8.70;;;6.43;;
37383;SDS011;23258;49.718;11.082;2023-02-13T13:14:37;9.30;;;7.18;;
37383;SDS011;23258;49.718;11.082;2023-02-13T13:17:12;11.38;;;7.72;;
37383;SDS011;23258;49.718;11.082;2023-02-13T13:19:47;10.57;;;6.32;;
37383;SDS011;23258;49.718;11.082;2023-02-13T13:22:22;6.80;;;5.57;;
37383;SDS011;23258;49.718;11.082;2023-02-13T13:24:58;6.90;;;6.10;;
37383;SDS011;23258;49.718;11.082;2023-02-13T13:27:31;6.57;;;5.55;;
37383;SDS011;23258;49.718;11.082;2023-02-13T13:30:03;6.35;;;5.05;;
37383;SDS011;23258;49.718;11.082;2023-02-13T13:32:33;5.65;;;5.15;;
37383;SDS011;23258;49.718;11.082;2023-02-13T13:35:05;9.90;;;5.90;;
37383;SDS011;23258;49.718;11.082;2023-02-13T13:37:36;6.88;;;5.82;;
37383;SDS011;23258;49.718;11.082;2023-02-13T13:40:14;6.70;;;6.00;;
37383;SDS011;23258;49.718;11.082;2023-02-13T13:42:46;7.63;;;5.95;;
37383;SDS011;23258;49.718;11.082;2023-02-13T13:45:20;7.45;;;5.97;;
37383;SDS011;23258;49.718;11.082;2023-02-13T13:47:58;7.00;;;6.30;;
37383;SDS011;23258;49.718;11.082;2023-02-13T13:50:29;8.05;;;5.82;;
37383;SDS011;23258;49.718;11.082;2023-02-13T13:53:10;6.70;;;5.65;;
37383;SDS011;23258;49.718;11.082;2023-02-13T13:58:30;7.22;;;5.20;;
37383;SDS011;23258;49.718;11.082;2023-02-13T14:03:45;6.43;;;5.13;;
37383;SDS011;23258;49.718;11.082;2023-02-13T14:06:15;7.03;;;5.25;;
37383;SDS011;23258;49.718;11.082;2023-02-13T14:11:34;8.18;;;6.25;;
37383;SDS011;23258;49.718;11.082;2023-02-13T14:16:51;5.57;;;5.00;;
37383;SDS011;23258;49.718;11.082;2023-02-13T14:19:25;7.07;;;5.85;;
37383;SDS011;23258;49.718;11.082;2023-02-13T14:24:39;6.22;;;5.50;;
37383;SDS011;23258;49.718;11.082;2023-02-13T14:27:15;5.50;;;4.97;;
37383;SDS011;23258;49.718;11.082;2023-02-13T14:29:48;7.70;;;5.90;;
37383;SDS011;23258;49.718;11.082;2023-02-13T14:32:21;5.80;;;5.20;;
37383;SDS011;23258;49.718;11.082;2023-02-13T14:34:55;5.97;;;5.38;;
37383;SDS011;23258;49.718;11.082;2023-02-13T14:37:30;6.00;;;5.20;;
37383;SDS011;23258;49.718;11.082;2023-02-13T14:42:46;6.68;;;5.82;;
37383;SDS011;23258;49.718;11.082;2023-02-13T14:45:17;8.52;;;6.57;;
37383;SDS011;23258;49.718;11.082;2023-02-13T14:47:52;6.95;;;6.22;;
37383;SDS011;23258;49.718;11.082;2023-02-13T14:50:22;7.28;;;6.57;;
37383;SDS011;23258;49.718;11.082;2023-02-13T14:52:53;8.55;;;7.00;;
37383;SDS011;23258;49.718;11.082;2023-02-13T14:55:27;12.40;;;6.78;;
37383;SDS011;23258;49.718;11.082;2023-02-13T14:58:01;8.40;;;6.82;;
37383;SDS011;23258;49.718;11.082;2023-02-13T15:00:35;7.38;;;6.68;;
37383;SDS011;23258;49.718;11.082;2023-02-13T15:03:10;9.98;;;6.93;;
37383;SDS011;23258;49.718;11.082;2023-02-13T15:05:41;8.32;;;7.35;;
37383;SDS011;23258;49.718;11.082;2023-02-13T15:08:17;8.25;;;6.47;;
37383;SDS011;23258;49.718;11.082;2023-02-13T15:10:49;7.28;;;6.57;;
37383;SDS011;23258;49.718;11.082;2023-02-13T15:13:19;6.78;;;6.13;;
37383;SDS011;23258;49.718;11.082;2023-02-13T15:15:51;7.35;;;6.25;;
37383;SDS011;23258;49.718;11.082;2023-02-13T15:18:24;6.47;;;5.70;;
37383;SDS011;23258;49.718;11.082;2023-02-13T15:20:55;7.05;;;6.35;;
37383;SDS011;23258;49.718;11.082;2023-02-13T15:23:27;6.75;;;6.05;;
37383;SDS011;23258;49.718;11.082;2023-02-13T15:25:57;6.85;;;6.07;;
37383;SDS011;23258;49.718;11.082;2023-02-13T15:28:28;6.35;;;5.18;;
37383;SDS011;23258;49.718;11.082;2023-02-13T15:30:58;6.82;;;5.50;;
37383;SDS011;23258;49.718;11.082;2023-02-13T15:33:43;5.95;;;5.22;;
37383;SDS011;23258;49.718;11.082;2023-02-13T15:36:15;8.40;;;5.60;;